Time;durP1;ratioP1;P1;durP2;ratioP2;P2;SDS_P1;SDS_P2;PMS_P1;PMS_P2;Temp;Humidity;BMP_temperature;BMP_pressure;BME280_temperature;BME280_humidity;BME280_pressure;Samples;Min_cycle;Max_cycle;Signal;HPM_P1;HPM_P2
2023/08/13 00:00:30;;;;;;;3.95;2.20;;;;;;;20.06;100.00;98551.59;2601990;28;20049;-86
2023/08/13 00:02:05;;;;;;;3.03;2.17;;;;;;;20.05;100.00;98549.88;2601795;28;20049;-85
2023/08/13 00:03:21;;;;;;;2.58;2.10;;;;;;;20.08;100.00;98554.16;2602098;28;20054;-87
2023/08/13 00:04:37;;;;;;;2.25;2.00;;;;;;;20.05;100.00;98549.88;2590924;28;20050;-86
2023/08/13 00:05:52;;;;;;;2.55;2.10;;;;;;;20.06;100.00;98548.94;2595586;28;20045;-86
2023/08/13 00:07:09;;;;;;;3.25;2.30;;;;;;;20.08;100.00;98548.84;2601939;28;20045;-86
2023/08/13 00:08:25;;;;;;;2.78;2.17;;;;;;;20.11;100.00;98546.81;2601854;28;20056;-87
2023/08/13 00:09:41;;;;;;;2.80;2.30;;;;;;;20.12;100.00;98553.00;2602048;28;20493;-86
2023/08/13 00:10:57;;;;;;;2.70;1.98;;;;;;;20.07;100.00;98547.97;2601982;28;20068;-86
2023/08/13 00:12:12;;;;;;;4.10;2.38;;;;;;;20.07;100.00;98550.63;2601892;28;20053;-86
2023/08/13 00:13:27;;;;;;;4.40;2.25;;;;;;;20.14;100.00;98548.44;2602093;28;20042;-86
2023/08/13 00:14:43;;;;;;;3.47;2.28;;;;;;;20.09;100.00;98550.56;2602146;28;20096;-87
2023/08/13 00:15:59;;;;;;;4.07;1.95;;;;;;;20.08;100.00;98549.69;2602052;28;20069;-87
2023/08/13 00:17:14;;;;;;;3.03;2.20;;;;;;;20.15;100.00;98552.78;2602121;28;20501;-87
2023/08/13 00:18:32;;;;;;;3.35;2.30;;;;;;;20.15;100.00;98551.00;2602188;28;20053;-87
2023/08/13 00:19:47;;;;;;;3.63;2.10;;;;;;;20.17;100.00;98550.88;2601925;28;20049;-87
2023/08/13 00:21:03;;;;;;;4.55;2.33;;;;;;;20.12;100.00;98551.22;2601855;28;20041;-86
2023/08/13 00:22:18;;;;;;;6.55;2.00;;;;;;;20.12;100.00;98551.22;2601805;28;20045;-87
2023/08/13 00:23:34;;;;;;;3.53;2.30;;;;;;;20.09;100.00;98548.72;2602137;28;20044;-86
2023/08/13 00:24:51;;;;;;;2.88;2.40;;;;;;;20.05;100.00;98557.88;2600985;28;20037;-86
2023/08/13 00:26:07;;;;;;;4.93;2.30;;;;;;;20.01;100.00;98554.53;2590937;28;20050;-87
2023/08/13 00:27:22;;;;;;;2.35;1.95;;;;;;;19.99;100.00;98564.44;2595550;28;20482;-87
2023/08/13 00:28:37;;;;;;;3.05;2.33;;;;;;;19.99;100.00;98560.94;2602018;28;20132;-87
2023/08/13 00:29:53;;;;;;;5.22;2.35;;;;;;;19.90;100.00;98557.00;2602230;28;20048;-87
2023/08/13 00:31:09;;;;;;;4.45;2.45;;;;;;;19.97;100.00;98555.72;2602078;28;20120;-87
2023/08/13 00:32:24;;;;;;;2.88;2.30;;;;;;;20.00;100.00;98558.16;2601996;28;20053;-87
2023/08/13 00:33:40;;;;;;;6.07;2.47;;;;;;;20.03;100.00;98557.94;2602045;28;20107;-86
2023/08/13 00:34:55;;;;;;;4.10;2.33;;;;;;;20.01;100.00;98559.88;2591308;28;20054;-86
2023/08/13 00:36:11;;;;;;;3.80;2.47;;;;;;;20.08;100.00;98554.16;2595589;28;20045;-87
2023/08/13 00:37:26;;;;;;;3.15;2.40;;;;;;;20.09;100.00;98562.00;2601942;28;20061;-86
2023/08/13 00:38:42;;;;;;;3.15;2.78;;;;;;;19.97;100.00;98557.50;2602035;28;20049;-86
2023/08/13 00:39:57;;;;;;;4.78;2.78;;;;;;;19.95;100.00;98559.41;2602078;28;20045;-86
2023/08/13 00:41:13;;;;;;;4.97;2.55;;;;;;;19.89;100.00;98558.84;2602089;28;20505;-87
2023/08/13 00:42:28;;;;;;;3.75;2.50;;;;;;;19.97;100.00;98562.81;2591062;28;20042;-87
2023/08/13 00:43:44;;;;;;;2.78;2.45;;;;;;;19.94;100.00;98563.03;2591175;28;20053;-86
2023/08/13 00:45:00;;;;;;;3.65;2.50;;;;;;;19.89;100.00;98563.28;2595502;28;20052;-86
2023/08/13 00:46:16;;;;;;;3.42;2.72;;;;;;;19.85;100.00;98565.31;2602044;28;20156;-86
2023/08/13 00:47:31;;;;;;;3.70;2.22;;;;;;;19.78;100.00;98561.31;2601884;28;20456;-86
2023/08/13 00:48:48;;;;;;;3.47;2.40;;;;;;;19.83;100.00;98559.22;2591057;28;20486;-87
2023/08/13 00:50:04;;;;;;;4.25;2.38;;;;;;;19.68;100.00;98558.41;2603077;28;20135;-85
2023/08/13 00:51:22;;;;;;;4.28;2.35;;;;;;;19.72;100.00;98561.72;2612289;28;20045;-86
2023/08/13 00:52:38;;;;;;;3.28;2.10;;;;;;;19.85;100.00;98560.00;2612194;28;20420;-86
2023/08/13 00:53:54;;;;;;;4.85;2.53;;;;;;;19.95;100.00;98562.94;2612153;28;20128;-86
2023/08/13 00:55:11;;;;;;;4.50;3.13;;;;;;;19.95;100.00;98565.59;2612384;28;20107;-86
2023/08/13 00:56:27;;;;;;;3.53;2.60;;;;;;;19.93;100.00;98561.31;2612082;28;20071;-86
2023/08/13 00:57:43;;;;;;;3.78;2.55;;;;;;;19.90;100.00;98563.19;2601193;28;20485;-86
2023/08/13 00:58:58;;;;;;;4.45;2.22;;;;;;;19.89;100.00;98560.63;2605535;28;20053;-86
2023/08/13 01:00:16;;;;;;;3.10;2.28;;;;;;;19.86;100.00;98559.03;2612233;28;20048;-86
2023/08/13 01:01:33;;;;;;;4.20;2.10;;;;;;;19.74;100.00;98554.50;2612070;28;20048;-86
2023/08/13 01:02:49;;;;;;;4.82;2.30;;;;;;;19.78;100.00;98552.53;2612064;28;20160;-86
2023/08/13 01:04:05;;;;;;;4.40;2.30;;;;;;;19.75;100.00;98554.41;2612143;28;20168;-86
2023/08/13 01:05:26;;;;;;;3.15;2.50;;;;;;;19.80;100.00;98556.75;2612070;28;20048;-86
2023/08/13 01:07:16;;;;;;;3.10;2.20;;;;;;;19.83;100.00;98551.25;2612048;28;20076;-86
2023/08/13 01:08:58;;;;;;;2.95;2.38;;;;;;;19.72;100.00;98549.28;2612152;28;20080;-86
2023/08/13 01:10:33;;;;;;;5.28;2.60;;;;;;;19.78;100.00;98548.03;2613642;28;20044;-85
2023/08/13 01:11:55;;;;;;;3.35;2.25;;;;;;;19.74;100.00;98547.38;2602991;28;20042;-86
2023/08/13 01:13:20;;;;;;;3.40;2.33;;;;;;;19.77;100.00;98554.31;2600340;28;20445;-85
2023/08/13 01:14:48;;;;;;;3.85;2.30;;;;;;;19.78;100.00;98553.34;2592695;28;20429;-85
2023/08/13 01:16:05;;;;;;;2.67;2.13;;;;;;;19.72;100.00;98551.09;2598885;28;20497;-86
2023/08/13 01:17:22;;;;;;;4.10;2.25;;;;;;;19.72;100.00;98549.28;2603807;28;20050;-86
2023/08/13 01:18:39;;;;;;;5.15;2.40;;;;;;;19.70;100.00;98551.19;2603653;28;20049;-85
2023/08/13 01:19:55;;;;;;;3.50;2.40;;;;;;;19.66;100.00;98557.66;2603710;28;20080;-86
2023/08/13 01:21:11;;;;;;;2.85;2.38;;;;;;;19.66;100.00;98551.47;2603746;28;20049;-87
2023/08/13 01:22:27;;;;;;;3.65;2.00;;;;;;;19.70;100.00;98547.69;2603649;28;20060;-87
2023/08/13 01:23:42;;;;;;;3.67;2.33;;;;;;;19.55;100.00;98545.03;2603613;28;20452;-85
2023/08/13 01:24:58;;;;;;;4.03;2.20;;;;;;;19.56;100.00;98552.09;2603582;28;20111;-85
2023/08/13 01:26:23;;;;;;;3.42;2.53;;;;;;;19.34;100.00;98556.09;2603699;28;20042;-85
2023/08/13 01:27:45;;;;;;;3.03;2.38;;;;;;;19.14;100.00;98556.47;2603604;28;20128;-85
2023/08/13 01:29:09;;;;;;;2.65;2.38;;;;;;;19.11;100.00;98569.91;2603683;28;20045;-85
2023/08/13 01:30:34;;;;;;;5.57;2.80;;;;;;;19.16;100.00;98560.72;2592651;28;20144;-85
2023/08/13 01:31:54;;;;;;;4.07;2.58;;;;;;;19.27;100.00;98560.06;2598360;28;20045;-85
2023/08/13 01:33:18;;;;;;;2.92;2.28;;;;;;;19.31;100.00;98566.03;2603451;28;20049;-85
2023/08/13 01:34:34;;;;;;;4.85;2.70;;;;;;;19.32;100.00;98568.59;2603506;28;20495;-85
2023/08/13 01:35:50;;;;;;;5.93;2.90;;;;;;;19.38;100.00;98569.16;2603415;28;20417;-85
2023/08/13 01:37:07;;;;;;;6.65;2.67;;;;;;;19.24;100.00;98570.88;2603429;28;20041;-85
2023/08/13 01:38:24;;;;;;;2.80;2.22;;;;;;;19.34;100.00;98574.66;2603649;28;20048;-85
2023/08/13 01:39:39;;;;;;;4.07;2.55;;;;;;;19.30;100.00;98569.63;2603535;28;20046;-85
2023/08/13 01:40:57;;;;;;;2.80;2.13;;;;;;;19.33;100.00;98567.66;2603659;28;20051;-87
2023/08/13 01:42:13;;;;;;;4.03;2.33;;;;;;;19.43;100.00;98572.41;2603342;28;20050;-87
2023/08/13 01:43:28;;;;;;;2.70;2.40;;;;;;;19.52;100.00;98568.31;2603443;28;20053;-85
2023/08/13 01:44:44;;;;;;;2.58;2.17;;;;;;;19.48;100.00;98567.63;2603517;28;20045;-86
2023/08/13 01:46:01;;;;;;;3.88;2.60;;;;;;;19.38;100.00;98559.41;2603436;28;20493;-86
2023/08/13 01:47:17;;;;;;;4.72;2.70;;;;;;;19.45;100.00;98559.88;2603432;28;20049;-86
2023/08/13 01:48:32;;;;;;;2.85;2.30;;;;;;;19.55;100.00;98566.28;2603428;28;20069;-86
2023/08/13 01:49:49;;;;;;;4.68;2.35;;;;;;;19.48;100.00;98562.31;2603225;28;20080;-86
2023/08/13 01:51:04;;;;;;;4.60;2.45;;;;;;;19.56;100.00;98568.03;2603169;28;20696;-86
2023/08/13 01:52:20;;;;;;;2.95;2.42;;;;;;;19.54;100.00;98566.41;2603370;28;20045;-86
2023/08/13 01:53:35;;;;;;;4.00;2.60;;;;;;;19.61;100.00;98567.69;2603448;28;20053;-86
2023/08/13 01:54:51;;;;;;;3.55;2.63;;;;;;;19.65;100.00;98563.06;2603178;28;20068;-87
2023/08/13 01:56:06;;;;;;;5.78;2.72;;;;;;;19.60;100.00;98566.88;2592476;28;20497;-86
2023/08/13 01:57:22;;;;;;;3.05;2.22;;;;;;;19.62;100.00;98564.09;2606644;28;20110;-86
2023/08/13 01:58:37;;;;;;;3.75;2.10;;;;;;;19.55;100.00;98557.47;2608930;28;20424;-86
2023/08/13 01:59:53;;;;;;;3.72;2.38;;;;;;;19.46;100.00;98565.06;2603216;28;20120;-86
2023/08/13 02:01:08;;;;;;;3.50;2.60;;;;;;;19.57;100.00;98564.41;2603409;28;20049;-86
2023/08/13 02:02:24;;;;;;;6.88;2.47;;;;;;;19.54;100.00;98558.44;2602804;28;20046;-86
2023/08/13 02:03:39;;;;;;;4.47;2.60;;;;;;;19.38;100.00;98567.38;2603262;28;20065;-86
2023/08/13 02:04:55;;;;;;;4.80;2.45;;;;;;;19.23;100.00;98557.72;2603166;28;20053;-86
2023/08/13 02:06:11;;;;;;;3.22;2.65;;;;;;;19.42;100.00;98560.06;2603338;28;20080;-86
2023/08/13 02:07:26;;;;;;;3.60;2.45;;;;;;;19.33;100.00;98566.78;2603067;28;20060;-86
2023/08/13 02:08:42;;;;;;;3.03;2.10;;;;;;;19.35;100.00;98562.25;2603177;28;20073;-86
2023/08/13 02:09:57;;;;;;;3.97;2.45;;;;;;;19.41;100.00;98568.97;2603263;28;20053;-86
2023/08/13 02:11:13;;;;;;;2.72;2.40;;;;;;;19.41;100.00;98571.63;2592193;28;20049;-86
2023/08/13 02:12:29;;;;;;;6.40;2.80;;;;;;;19.47;100.00;98573.91;2596477;28;20053;-86
2023/08/13 02:13:44;;;;;;;2.83;2.50;;;;;;;19.58;100.00;98574.09;2603288;28;20168;-85
2023/08/13 02:15:00;;;;;;;3.47;2.03;;;;;;;19.44;100.00;98577.59;2603106;28;20052;-85
2023/08/13 02:16:15;;;;;;;3.05;2.45;;;;;;;19.25;100.00;98579.69;2603089;28;20587;-85
2023/08/13 02:17:31;;;;;;;4.35;2.38;;;;;;;19.16;100.00;98586.44;2603125;28;20049;-87
2023/08/13 02:18:47;;;;;;;6.15;2.28;;;;;;;19.20;100.00;98587.94;2603259;28;20061;-85
2023/08/13 02:20:03;;;;;;;3.83;2.65;;;;;;;19.32;100.00;98588.97;2603100;28;20069;-85
2023/08/13 02:21:20;;;;;;;5.00;2.38;;;;;;;19.42;100.00;98584.81;2602552;28;20137;-86
2023/08/13 02:22:35;;;;;;;4.15;2.30;;;;;;;19.33;100.00;98585.38;2602981;28;20053;-86
2023/08/13 02:23:51;;;;;;;4.28;2.45;;;;;;;19.27;100.00;98580.44;2602927;28;20049;-86
2023/08/13 02:25:07;;;;;;;6.35;2.45;;;;;;;19.15;100.00;98598.81;2602969;28;20057;-86
2023/08/13 02:26:22;;;;;;;2.90;2.28;;;;;;;19.19;100.00;98595.03;2603129;28;20042;-85
2023/08/13 02:27:37;;;;;;;3.55;2.50;;;;;;;19.14;100.00;98594.47;2602893;28;20057;-85
2023/08/13 02:28:53;;;;;;;3.95;2.67;;;;;;;19.13;100.00;98597.19;2602938;28;20128;-86
2023/08/13 02:30:10;;;;;;;3.03;2.30;;;;;;;19.18;100.00;98595.97;2603066;28;20046;-85
2023/08/13 02:31:25;;;;;;;2.85;2.25;;;;;;;19.29;100.00;98578.53;2602839;28;20137;-86
2023/08/13 02:32:41;;;;;;;3.88;2.88;;;;;;;19.24;100.00;98591.25;2602664;28;20524;-86
2023/08/13 02:33:56;;;;;;;3.20;2.60;;;;;;;19.28;100.00;98592.78;2592036;28;20513;-86
2023/08/13 02:35:12;;;;;;;5.60;2.25;;;;;;;19.31;100.00;98588.13;2596529;28;20041;-85
2023/08/13 02:36:27;;;;;;;2.88;2.35;;;;;;;19.23;100.00;98592.22;2602919;28;20049;-86
2023/08/13 02:37:43;;;;;;;4.88;2.60;;;;;;;19.27;100.00;98591.91;2602966;28;20050;-86
2023/08/13 02:38:59;;;;;;;3.28;2.42;;;;;;;19.32;100.00;98588.97;2591968;28;20121;-86
2023/08/13 02:40:14;;;;;;;2.75;2.40;;;;;;;19.29;100.00;98587.38;2596382;28;20041;-86
2023/08/13 02:41:30;;;;;;;3.35;2.50;;;;;;;19.11;100.00;98586.69;2602772;28;20045;-86
2023/08/13 02:42:45;;;;;;;4.32;2.53;;;;;;;19.13;100.00;98592.75;2602630;28;20049;-86
2023/08/13 02:44:01;;;;;;;3.85;2.60;;;;;;;19.25;100.00;98592.97;2602766;28;20076;-85
2023/08/13 02:45:16;;;;;;;4.40;2.80;;;;;;;19.32;100.00;98587.19;2602863;28;20049;-86
2023/08/13 02:46:32;;;;;;;3.75;2.30;;;;;;;19.38;100.00;98585.94;2602995;28;20052;-86
2023/08/13 02:47:47;;;;;;;5.63;2.78;;;;;;;19.37;100.00;98584.25;2602700;28;20456;-86
2023/08/13 02:49:03;;;;;;;3.67;2.50;;;;;;;19.39;100.00;98590.31;2602688;28;20065;-86
2023/08/13 02:50:19;;;;;;;4.18;2.75;;;;;;;19.44;100.00;98587.38;2602683;28;20386;-85
2023/08/13 02:51:34;;;;;;;3.78;2.10;;;;;;;19.38;100.00;98585.09;2602876;28;20492;-86
2023/08/13 02:52:50;;;;;;;2.83;2.53;;;;;;;19.39;100.00;98589.44;2602519;28;20041;-85
2023/08/13 02:54:06;;;;;;;3.80;2.28;;;;;;;19.43;100.00;98591.81;2602725;28;20184;-86
2023/08/13 02:55:21;;;;;;;3.28;2.42;;;;;;;19.30;100.00;98590.88;2602782;28;20057;-86
2023/08/13 02:56:37;;;;;;;4.30;2.30;;;;;;;19.20;100.00;98596.72;2602803;28;20053;-85
2023/08/13 02:57:53;;;;;;;5.78;2.78;;;;;;;19.20;100.00;98599.38;2602597;28;20049;-86
2023/08/13 02:59:08;;;;;;;3.33;2.30;;;;;;;19.12;100.00;98595.50;2602557;28;20477;-86
2023/08/13 03:00:24;;;;;;;3.60;2.35;;;;;;;19.12;100.00;98598.16;2605513;28;20041;-86
2023/08/13 03:01:40;;;;;;;2.80;2.40;;;;;;;19.02;100.00;98595.22;2610239;28;20044;-86
2023/08/13 03:02:55;;;;;;;4.22;2.60;;;;;;;19.08;100.00;98597.50;2592143;28;20105;-86
2023/08/13 03:04:11;;;;;;;4.55;2.35;;;;;;;19.17;100.00;98599.59;2592409;28;20056;-86
2023/08/13 03:05:27;;;;;;;3.80;2.40;;;;;;;19.10;100.00;98594.75;2581656;28;20050;-86
2023/08/13 03:06:43;;;;;;;5.75;2.60;;;;;;;19.03;100.00;98599.56;2586028;28;20125;-86
2023/08/13 03:07:58;;;;;;;4.22;2.50;;;;;;;19.09;100.00;98598.34;2592259;28;20042;-86
2023/08/13 03:09:22;;;;;;;2.97;2.22;;;;;;;18.96;100.00;98598.22;2592298;28;20066;-86
2023/08/13 03:10:37;;;;;;;5.03;2.88;;;;;;;18.84;100.00;98591.81;2592332;28;20108;-86
2023/08/13 03:11:52;;;;;;;4.18;2.50;;;;;;;18.91;100.00;98598.50;2592477;28;20557;-86
2023/08/13 03:13:08;;;;;;;3.13;2.50;;;;;;;18.91;100.00;98590.53;2592161;28;20076;-86
2023/08/13 03:14:24;;;;;;;2.88;2.45;;;;;;;18.90;100.00;98589.66;2592577;28;20421;-86
2023/08/13 03:15:39;;;;;;;4.00;2.42;;;;;;;18.84;100.00;98583.88;2592326;28;20450;-86
2023/08/13 03:16:55;;;;;;;4.53;2.60;;;;;;;18.89;100.00;98584.47;2581346;28;20411;-86
2023/08/13 03:18:11;;;;;;;6.68;3.15;;;;;;;18.96;100.00;98577.81;2595379;28;20092;-86
2023/08/13 03:19:26;;;;;;;4.28;2.80;;;;;;;19.12;100.00;98585.75;2602530;28;20037;-86
2023/08/13 03:20:42;;;;;;;5.78;3.10;;;;;;;19.24;100.00;98581.47;2602516;28;20385;-86
2023/08/13 03:21:57;;;;;;;3.45;2.65;;;;;;;19.24;100.00;98585.94;2601853;28;20103;-86
2023/08/13 03:23:13;;;;;;;3.85;2.90;;;;;;;19.19;100.00;98583.56;2602249;28;20038;-86
2023/08/13 03:24:28;;;;;;;4.95;2.95;;;;;;;19.25;100.00;98582.34;2602535;28;20459;-86
2023/08/13 03:25:44;;;;;;;4.43;2.60;;;;;;;19.14;100.00;98594.47;2602401;28;20073;-86
2023/08/13 03:26:59;;;;;;;4.63;2.70;;;;;;;19.15;100.00;98598.00;2594069;28;20042;-86
2023/08/13 03:28:15;;;;;;;4.03;2.60;;;;;;;19.07;100.00;98594.94;2595834;28;20056;-86
2023/08/13 03:29:30;;;;;;;3.38;2.72;;;;;;;19.24;100.00;98585.94;2602365;28;20072;-86
2023/08/13 03:30:46;;;;;;;3.60;2.63;;;;;;;19.27;100.00;98591.06;2591458;28;20053;-86
2023/08/13 03:32:01;;;;;;;5.18;3.05;;;;;;;19.32;100.00;98589.84;2595808;28;20057;-86
2023/08/13 03:33:17;;;;;;;3.22;2.70;;;;;;;19.18;100.00;98593.31;2601375;28;20076;-86
2023/08/13 03:34:33;;;;;;;3.65;3.00;;;;;;;19.26;100.00;98584.88;2602296;28;20096;-86
2023/08/13 03:35:48;;;;;;;5.80;2.80;;;;;;;19.36;100.00;98590.50;2591342;28;20046;-86
2023/08/13 03:37:04;;;;;;;3.47;2.70;;;;;;;19.28;100.00;98592.78;2595729;28;20045;-86
2023/08/13 03:38:19;;;;;;;2.97;2.50;;;;;;;19.12;100.00;98582.22;2602144;28;20185;-85
2023/08/13 03:39:35;;;;;;;5.78;2.35;;;;;;;19.22;100.00;98585.19;2602215;28;20037;-85
2023/08/13 03:40:54;;;;;;;3.55;2.45;;;;;;;19.25;100.00;98583.19;2602532;28;20116;-86
2023/08/13 03:42:09;;;;;;;4.25;2.92;;;;;;;19.21;100.00;98581.69;2602455;28;20069;-86
2023/08/13 03:43:25;;;;;;;3.58;2.70;;;;;;;19.19;100.00;98581.75;2602034;28;20125;-86
2023/08/13 03:44:41;;;;;;;2.83;2.53;;;;;;;19.19;100.00;98579.09;2602257;28;20049;-86
2023/08/13 03:45:57;;;;;;;2.85;2.47;;;;;;;19.15;100.00;98588.22;2602171;28;20410;-86
2023/08/13 03:47:12;;;;;;;4.55;2.50;;;;;;;19.14;100.00;98581.19;2602218;28;20477;-86
2023/08/13 03:48:28;;;;;;;3.67;2.75;;;;;;;19.14;100.00;98590.97;2602346;28;20045;-86
2023/08/13 03:49:43;;;;;;;4.82;2.95;;;;;;;19.11;100.00;98583.19;2601954;28;20045;-85
2023/08/13 03:50:59;;;;;;;5.78;2.70;;;;;;;19.10;100.00;98585.00;2602277;28;20493;-86
2023/08/13 03:52:14;;;;;;;3.67;3.03;;;;;;;19.08;100.00;98586.91;2602289;28;20053;-85
2023/08/13 03:53:30;;;;;;;3.85;2.78;;;;;;;19.08;100.00;98583.38;2602131;28;20553;-86
2023/08/13 03:54:45;;;;;;;3.50;2.40;;;;;;;19.05;100.00;98587.94;2602125;28;20084;-86
2023/08/13 03:56:05;;;;;;;5.40;2.40;;;;;;;18.96;100.00;98583.13;2602241;28;20382;-86
2023/08/13 03:57:20;;;;;;;3.60;2.47;;;;;;;18.89;100.00;98587.13;2602141;28;20120;-86
2023/08/13 03:58:38;;;;;;;2.88;2.45;;;;;;;18.76;100.00;98585.19;2602058;28;20125;-86
2023/08/13 03:59:53;;;;;;;3.75;2.30;;;;;;;18.81;100.00;98587.59;2602137;28;20081;-86
2023/08/13 04:01:09;;;;;;;3.58;2.65;;;;;;;18.86;100.00;98582.84;2601606;28;20052;-86
2023/08/13 04:02:25;;;;;;;3.40;2.55;;;;;;;18.88;100.00;98580.94;2601719;28;20104;-86
2023/08/13 04:03:40;;;;;;;4.20;2.50;;;;;;;18.87;100.00;98589.00;2602074;28;20096;-86
2023/08/13 04:04:58;;;;;;;3.13;2.60;;;;;;;18.88;100.00;98591.56;2601493;28;20049;-86
2023/08/13 04:06:13;;;;;;;3.40;2.40;;;;;;;18.80;100.00;98591.19;2610310;28;20385;-86
2023/08/13 04:07:29;;;;;;;3.65;2.17;;;;;;;18.52;100.00;98590.16;2602227;28;20088;-85
2023/08/13 04:08:44;;;;;;;5.40;2.70;;;;;;;18.39;100.00;98590.00;2591092;28;20498;-86
2023/08/13 04:10:00;;;;;;;2.80;2.50;;;;;;;18.30;100.00;98586.09;2595440;28;20046;-86
2023/08/13 04:11:15;;;;;;;4.18;2.42;;;;;;;18.26;100.00;98594.28;2601192;28;20045;-85
2023/08/13 04:12:31;;;;;;;4.28;2.53;;;;;;;18.21;100.00;98590.13;2605578;28;20051;-85
2023/08/13 04:13:46;;;;;;;3.03;2.72;;;;;;;18.11;100.00;98588.94;2607251;28;20095;-85
2023/08/13 04:15:03;;;;;;;4.15;2.85;;;;;;;18.27;100.00;98590.69;2603611;28;20045;-85
2023/08/13 04:16:18;;;;;;;4.00;3.25;;;;;;;18.29;100.00;98594.97;2602156;28;20470;-85
2023/08/13 04:17:34;;;;;;;6.20;3.05;;;;;;;18.20;100.00;98595.50;2601927;28;20034;-86
2023/08/13 04:18:52;;;;;;;3.53;2.80;;;;;;;18.04;100.00;98599.03;2601488;28;20459;-85
2023/08/13 04:20:08;;;;;;;3.63;3.30;;;;;;;18.23;100.00;98605.06;2591124;28;20412;-86
2023/08/13 04:21:25;;;;;;;4.35;3.42;;;;;;;18.13;100.00;98608.25;2595479;28;20125;-86
2023/08/13 04:22:41;;;;;;;5.53;3.20;;;;;;;18.18;100.00;98602.69;2601888;28;20076;-86
2023/08/13 04:23:56;;;;;;;6.05;3.50;;;;;;;18.35;100.00;98609.69;2602039;28;20449;-85
2023/08/13 04:25:12;;;;;;;4.47;3.10;;;;;;;18.35;100.00;98609.69;2602069;28;20046;-85
2023/08/13 04:26:27;;;;;;;4.28;2.90;;;;;;;18.39;100.00;98605.06;2602021;28;20047;-85
2023/08/13 04:27:43;;;;;;;3.53;2.85;;;;;;;18.38;100.00;98609.50;2602074;28;20046;-86
2023/08/13 04:28:58;;;;;;;5.80;2.70;;;;;;;18.31;100.00;98606.34;2602005;28;20057;-85
2023/08/13 04:30:14;;;;;;;5.13;3.05;;;;;;;18.35;100.00;98609.69;2601811;28;20041;-86
2023/08/13 04:31:30;;;;;;;4.00;2.67;;;;;;;18.52;100.00;98613.16;2602175;28;20049;-85
2023/08/13 04:32:55;;;;;;;3.67;2.97;;;;;;;18.60;100.00;98610.91;2609401;28;20041;-87
2023/08/13 04:34:11;;;;;;;4.53;3.20;;;;;;;18.65;100.00;98606.19;2597024;28;20096;-85
2023/08/13 04:35:27;;;;;;;3.80;2.72;;;;;;;18.64;100.00;98607.97;2595286;28;20171;-86
2023/08/13 04:36:42;;;;;;;6.13;3.33;;;;;;;18.70;100.00;98612.06;2601940;28;20049;-86
2023/08/13 04:37:58;;;;;;;4.03;2.88;;;;;;;18.72;100.00;98615.50;2601633;28;20057;-86
2023/08/13 04:39:13;;;;;;;4.15;2.90;;;;;;;18.71;100.00;98616.41;2601912;28;20037;-85
2023/08/13 04:40:29;;;;;;;5.25;3.30;;;;;;;18.72;100.00;98612.84;2601825;28;20044;-86
2023/08/13 04:41:45;;;;;;;4.30;3.10;;;;;;;18.72;100.00;98612.84;2590817;28;20046;-85
2023/08/13 04:43:00;;;;;;;5.05;2.92;;;;;;;18.64;100.00;98610.63;2595246;28;20477;-86
2023/08/13 04:44:16;;;;;;;4.78;3.53;;;;;;;18.69;100.00;98618.31;2601944;28;20120;-86
2023/08/13 04:45:31;;;;;;;4.90;3.28;;;;;;;18.64;100.00;98617.75;2603870;28;20072;-85
2023/08/13 04:46:47;;;;;;;5.28;3.13;;;;;;;18.62;100.00;98609.88;2604084;28;20045;-85
2023/08/13 04:48:02;;;;;;;4.95;2.97;;;;;;;18.59;100.00;98619.81;2603969;28;20056;-85
2023/08/13 04:49:18;;;;;;;5.10;2.80;;;;;;;18.58;100.00;98626.91;2603920;28;20508;-85
2023/08/13 04:50:34;;;;;;;4.32;3.05;;;;;;;18.78;100.00;98617.78;2603861;28;20045;-85
2023/08/13 04:51:49;;;;;;;4.45;3.35;;;;;;;18.80;100.00;98620.34;2604027;28;20049;-85
2023/08/13 04:53:05;;;;;;;4.80;2.90;;;;;;;18.87;100.00;98620.84;2603874;28;20045;-85
2023/08/13 04:54:20;;;;;;;4.70;2.83;;;;;;;18.77;100.00;98610.78;2603977;28;20045;-87
2023/08/13 04:55:36;;;;;;;4.55;2.85;;;;;;;18.75;100.00;98612.66;2606057;28;20490;-85
2023/08/13 04:56:51;;;;;;;4.00;2.88;;;;;;;18.68;100.00;98606.00;2611076;28;20052;-84
2023/08/13 04:58:07;;;;;;;4.85;3.30;;;;;;;18.89;100.00;98616.28;2614076;28;20622;-85
2023/08/13 04:59:22;;;;;;;3.75;3.03;;;;;;;18.72;100.00;98609.34;2614173;28;20049;-85
2023/08/13 05:00:38;;;;;;;6.15;3.00;;;;;;;18.76;100.00;98618.81;2614184;28;20084;-85
2023/08/13 05:01:53;;;;;;;3.92;3.00;;;;;;;18.61;100.00;98623.22;2613867;28;20052;-85
2023/08/13 05:03:09;;;;;;;4.90;3.50;;;;;;;18.80;100.00;98619.50;2603077;28;20143;-84
2023/08/13 05:04:25;;;;;;;3.55;2.88;;;;;;;18.62;100.00;98616.97;2607551;28;20382;-85
2023/08/13 05:05:41;;;;;;;5.03;3.67;;;;;;;18.70;100.00;98616.53;2610306;28;20124;-84
2023/08/13 05:06:56;;;;;;;4.60;3.55;;;;;;;18.66;100.00;98618.50;2611342;28;20049;-84
2023/08/13 05:08:12;;;;;;;4.75;3.38;;;;;;;18.74;100.00;98616.25;2594741;28;20124;-86
2023/08/13 05:09:27;;;;;;;5.63;3.60;;;;;;;18.76;100.00;98613.50;2601628;28;20045;-86
2023/08/13 05:10:45;;;;;;;4.80;3.60;;;;;;;19.05;100.00;98614.47;2608112;28;20041;-84
2023/08/13 05:12:01;;;;;;;5.50;3.85;;;;;;;19.11;100.00;98617.69;2607487;28;20409;-85
2023/08/13 05:13:17;;;;;;;3.70;3.25;;;;;;;19.03;100.00;98619.00;2608148;28;20056;-84
2023/08/13 05:14:32;;;;;;;3.53;3.20;;;;;;;19.11;100.00;98618.53;2603504;28;20040;-85
2023/08/13 05:15:48;;;;;;;4.95;3.50;;;;;;;19.11;100.00;98613.25;2608923;28;20079;-84
2023/08/13 05:17:16;;;;;;;4.65;3.25;;;;;;;19.22;100.00;98619.72;2608971;28;20048;-84
2023/08/13 05:18:31;;;;;;;8.60;3.60;;;;;;;19.23;100.00;98622.25;2597926;28;20050;-85
2023/08/13 05:19:47;;;;;;;5.68;3.53;;;;;;;19.24;100.00;98618.63;2600977;28;20474;-84
2023/08/13 05:21:03;;;;;;;4.78;3.40;;;;;;;19.27;100.00;98621.09;2607428;28;20042;-85
2023/08/13 05:22:19;;;;;;;7.53;3.70;;;;;;;19.34;100.00;98619.78;2608224;28;20473;-84
2023/08/13 05:23:34;;;;;;;3.92;3.50;;;;;;;19.45;100.00;98612.97;2608696;28;20044;-84
2023/08/13 05:24:50;;;;;;;3.47;3.17;;;;;;;19.43;100.00;98617.53;2611805;28;20045;-84
2023/08/13 05:26:06;;;;;;;6.53;3.22;;;;;;;19.39;100.00;98616.00;2613858;28;20041;-84
2023/08/13 05:27:21;;;;;;;6.57;3.30;;;;;;;19.47;100.00;98611.06;2613816;28;20045;-84
2023/08/13 05:28:37;;;;;;;4.25;3.63;;;;;;;19.38;100.00;98622.25;2613452;28;20156;-84
2023/08/13 05:29:53;;;;;;;5.70;3.22;;;;;;;19.43;100.00;98617.53;2602812;28;20041;-84
2023/08/13 05:31:08;;;;;;;8.13;3.58;;;;;;;19.48;100.00;98612.78;2603533;28;20053;-84
2023/08/13 05:32:24;;;;;;;5.07;3.80;;;;;;;19.66;100.00;98613.44;2603521;28;20041;-84
2023/08/13 05:33:40;;;;;;;5.90;4.18;;;;;;;19.66;100.00;98618.75;2595189;28;20531;-85
2023/08/13 05:34:55;;;;;;;7.20;3.70;;;;;;;19.68;100.00;98610.66;2596697;28;20068;-84
2023/08/13 05:36:12;;;;;;;4.90;3.83;;;;;;;19.66;100.00;98613.44;2603555;28;20385;-84
2023/08/13 05:37:28;;;;;;;5.65;4.05;;;;;;;19.40;100.00;98618.56;2603652;28;20107;-84
2023/08/13 05:38:43;;;;;;;6.07;3.60;;;;;;;19.42;100.00;98626.44;2603520;28;20088;-84
2023/08/13 05:39:59;;;;;;;5.90;3.90;;;;;;;19.56;100.00;98615.81;2603424;28;20046;-84
2023/08/13 05:41:15;;;;;;;5.80;3.50;;;;;;;19.71;100.00;98621.13;2603589;28;20046;-84
2023/08/13 05:42:30;;;;;;;5.25;3.75;;;;;;;19.87;100.00;98623.63;2605706;28;20045;-84
2023/08/13 05:43:45;;;;;;;5.00;3.83;;;;;;;19.70;100.00;98622.06;2603358;28;20100;-84
2023/08/13 05:45:01;;;;;;;7.10;4.30;;;;;;;19.90;100.00;98626.97;2592488;28;20058;-84
2023/08/13 05:46:17;;;;;;;6.95;4.40;;;;;;;20.17;100.00;98625.31;2596943;28;20045;-84
2023/08/13 05:47:32;;;;;;;7.65;4.40;;;;;;;19.71;100.00;98623.78;2603383;28;20064;-85
2023/08/13 05:48:48;;;;;;;5.75;4.43;;;;;;;19.89;100.00;98622.59;2603252;28;20045;-84
2023/08/13 05:50:04;;;;;;;6.75;4.80;;;;;;;20.15;100.00;98625.44;2605827;28;20127;-84
2023/08/13 05:51:19;;;;;;;4.68;4.13;;;;;;;20.11;100.00;98631.03;2603432;28;20060;-84
2023/08/13 05:52:35;;;;;;;5.68;4.53;;;;;;;20.25;100.00;98623.00;2603420;28;20056;-84
2023/08/13 05:53:50;;;;;;;6.65;4.15;;;;;;;20.25;100.00;98624.81;2603306;28;20045;-84
2023/08/13 05:55:06;;;;;;;5.18;4.30;;;;;;;20.46;100.00;98622.53;2603159;28;20119;-85